Quick Links (Output Below):   Max & Min Temps   /   Climate Reports   /   Zone Forecasts
River Forecasts   /   Forestry Forecasts   /   Aviation Forecasts   /   Radars   /   Features

Terminal Aerodrome Forecast (Little Rock)

Pick a Site:
Arkadelphia | El Dorado | Fayetteville | Fort Smith | Harrison | Highfill | Hot Springs | Jonesboro
Little Rock | Monticello | Mountain Home | Pine Bluff | Texarkana
 Forecast 

KLIT 301123Z 3012/0112 12005KT P6SM FEW050 SCT250
     FM301900 15010KT P6SM VCTS SCT050CB BKN250
     FM010000 VRB04KT P6SM SCT050 SCT250=


 Latest METARs (Observations) 
How to Decode METARs
12Z KLIT 301153Z 00000KT 10SM FEW200 23/20 A3004 RMK AO2 SLP171
         T02280200 10250 20217 53006
         
11Z KLIT 301053Z 00000KT 10SM FEW200 22/19 A3002 RMK AO2 SLP166
         T02170194
         
10Z KLIT 300953Z 00000KT 10SM CLR 22/20 A3002 RMK AO2 SLP164
         T02220200
         
09Z KLIT 300853Z 00000KT 10SM CLR 23/20 A3002 RMK AO2 SLP165 T02280200
         58001
         
08Z KLIT 300753Z 00000KT 10SM CLR 23/21 A3002 RMK AO2 SLP166
         T02330206
         
07Z KLIT 300653Z 00000KT 10SM CLR 23/21 A3003 RMK AO2 SLP167
         T02330206
         
06Z KLIT 300553Z 04003KT 10SM CLR 24/21 A3002 RMK AO2 SLP166 T02440206
         10317 20239 403390233 52006
         
05Z KLIT 300453Z 14004KT 10SM CLR 25/21 A3001 RMK AO2 SLP161
         T02500206
         
04Z KLIT 300353Z 04004KT 10SM CLR 26/21 A3002 RMK AO2 SLP164
         T02610206
         
03Z KLIT 300253Z 07004KT 10SM FEW150 FEW250 27/21 A3000 RMK AO2 SLP160
         T02720206 53004
         
***** Today's Observations (Above) *****


Back to Main Page
http://www.srh.noaa.gov/lzk/qfcst.php

USA.gov is the U.S. government's official web portal to all federal, state and local government web resources and services.